createdAt,value
2022-08-12T00:01:02.080Z,95068.53
2022-08-12T00:03:47.332Z,95064.88
2022-08-12T00:06:33.684Z,95061.84
2022-08-12T00:09:25.763Z,95066.13
2022-08-12T00:12:12.752Z,95069.81
2022-08-12T00:14:59.329Z,95068.25
2022-08-12T00:17:45.555Z,95067.66
2022-08-12T00:20:31.141Z,95069.75
2022-08-12T00:23:17.276Z,95066.13
2022-08-12T00:26:23.747Z,95070.22
2022-08-12T00:29:13.804Z,95071.81
2022-08-12T00:32:00.970Z,95059.69
2022-08-12T00:34:49.337Z,95046.56
2022-08-12T00:37:36.548Z,95057.56
2022-08-12T00:40:28.047Z,95054.69
2022-08-12T00:42:56.955Z,95057.97
2022-08-12T00:45:24.551Z,95048.22
2022-08-12T00:47:53.505Z,95046.66
2022-08-12T00:50:22.803Z,95051.94
2022-08-12T00:52:52.532Z,95051.13
2022-08-12T00:55:20.487Z,95053.50
2022-08-12T00:57:50.025Z,95048.22
2022-08-12T01:00:22.860Z,95053.00
2022-08-12T01:02:53.517Z,95054.16
2022-08-12T01:05:42.044Z,95050.22
2022-08-12T01:08:27.745Z,95055.81
2022-08-12T01:11:15.115Z,95049.47
2022-08-12T01:13:47.262Z,95049.47
2022-08-12T01:16:18.044Z,95048.94
2022-08-12T01:18:45.413Z,95053.66
2022-08-12T01:21:26.611Z,95045.25
2022-08-12T01:24:30.854Z,95051.47
2022-08-12T01:26:58.784Z,95051.47
2022-08-12T01:29:32.923Z,95049.91
2022-08-12T01:32:05.833Z,95054.16
2022-08-12T01:34:38.791Z,95052.63
2022-08-12T01:37:10.122Z,95046.81
2022-08-12T01:40:33.689Z,95042.88
2022-08-12T01:42:48.795Z,95048.94
2022-08-12T01:45:17.715Z,95047.34
2022-08-12T01:48:05.422Z,95051.03
2022-08-12T01:50:47.471Z,95043.91
2022-08-12T01:53:18.293Z,95048.31
2022-08-12T01:55:47.793Z,95047.75
2022-08-12T01:58:55.536Z,95049.34
2022-08-12T02:01:27.912Z,95043.50
2022-08-12T02:04:33.227Z,95046.44
2022-08-12T02:07:18.509Z,95044.06
2022-08-12T02:10:50.923Z,95043.03
2022-08-12T02:13:42.076Z,95046.75
2022-08-12T02:16:23.828Z,95040.47
2022-08-12T02:19:22.783Z,95044.69
2022-08-12T02:22:04.832Z,95043.91
2022-08-12T02:24:37.709Z,95044.69
2022-08-12T02:27:08.378Z,95044.69
2022-08-12T02:29:40.413Z,95051.56
2022-08-12T02:32:08.447Z,95047.34
2022-08-12T02:34:35.832Z,95051.03
2022-08-12T02:37:05.031Z,95046.28
2022-08-12T02:39:35.556Z,95060.53
2022-08-12T02:42:06.797Z,95053.97
2022-08-12T02:44:40.390Z,95054.78
2022-08-12T02:47:59.055Z,95053.25
2022-08-12T02:49:58.457Z,95016.53
2022-08-12T02:52:27.646Z,95054.38
2022-08-12T02:55:13.385Z,95048.34
2022-08-12T02:57:57.468Z,95057.84
2022-08-12T03:00:26.314Z,95060.75
2022-08-12T03:02:57.196Z,95057.06
2022-08-12T03:05:26.336Z,95060.22
2022-08-12T03:07:59.950Z,95065.25
2022-08-12T03:10:37.000Z,95056.00
2022-08-12T03:13:07.510Z,95062.63
2022-08-12T03:15:35.790Z,95050.28
2022-08-12T03:18:25.675Z,95056.91
2022-08-12T03:20:54.765Z,95063.84
2022-08-12T03:23:30.222Z,95058.81
2022-08-12T03:26:01.788Z,95063.06
2022-08-12T03:28:50.485Z,95055.72
2022-08-12T03:31:35.471Z,95059.41
2022-08-12T03:34:09.850Z,95062.53
2022-08-12T03:36:38.785Z,95056.22
2022-08-12T03:39:18.262Z,95067.81
2022-08-12T03:41:54.951Z,95060.38
2022-08-12T03:45:00.825Z,95062.19
2022-08-12T03:48:13.405Z,95062.94
2022-08-12T03:51:05.641Z,95058.72
2022-08-12T03:53:52.190Z,95035.06
2022-08-12T03:56:38.008Z,95064.69
2022-08-12T03:59:24.914Z,95061.22
2022-08-12T04:01:57.808Z,95063.53
2022-08-12T04:04:34.848Z,95070.03
2022-08-12T04:07:04.613Z,95054.22
2022-08-12T04:09:31.916Z,95067.88
2022-08-12T04:12:17.272Z,95057.78
2022-08-12T04:14:44.249Z,95065.06
2022-08-12T04:17:12.416Z,95063.44
2022-08-12T04:19:40.100Z,95063.88
2022-08-12T04:22:06.963Z,95059.16
2022-08-12T04:24:36.042Z,95071.28
2022-08-12T04:27:10.290Z,95062.75
2022-08-12T04:30:30.290Z,95073.84
2022-08-12T04:32:26.430Z,95067.31
2022-08-12T04:34:59.129Z,95075.78
2022-08-12T04:37:27.568Z,95061.66
2022-08-12T04:39:55.193Z,95070.22
2022-08-12T04:42:23.936Z,95075.97
2022-08-12T04:44:50.670Z,95076.50
2022-08-12T04:47:19.271Z,95054.94
2022-08-12T04:49:48.362Z,95063.81
2022-08-12T04:52:16.023Z,95063.56
2022-08-12T04:54:44.132Z,95061.81
2022-08-12T04:57:11.344Z,95073.81
2022-08-12T04:59:47.888Z,95064.75
2022-08-12T05:02:21.795Z,95067.41
2022-08-12T05:04:51.730Z,95071.56
2022-08-12T05:07:20.291Z,95070.47
2022-08-12T05:10:00.362Z,95064.84
2022-08-12T05:12:36.683Z,95069.81
2022-08-12T05:15:16.795Z,95056.34
2022-08-12T05:17:52.520Z,95078.13
2022-08-12T05:20:21.266Z,95065.75
2022-08-12T05:22:50.091Z,95066.00
2022-08-12T05:25:24.020Z,95075.50
2022-08-12T05:27:58.566Z,95086.56
2022-08-12T05:30:33.551Z,95091.94
2022-08-12T05:33:05.319Z,95075.09
2022-08-12T05:35:43.191Z,95090.28
2022-08-12T05:38:33.887Z,95085.56
2022-08-12T05:41:01.977Z,95088.25
2022-08-12T05:43:29.114Z,95093.53
2022-08-12T05:45:56.740Z,95089.25
2022-08-12T05:48:24.631Z,95089.47
2022-08-12T05:50:52.993Z,95087.56
2022-08-12T05:53:19.926Z,95083.38
2022-08-12T05:55:46.768Z,95095.34
2022-08-12T05:58:13.733Z,95096.81
2022-08-12T06:00:42.558Z,95099.41
2022-08-12T06:03:09.511Z,95089.06
2022-08-12T06:05:54.409Z,95099.31
2022-08-12T06:08:24.138Z,95095.94
2022-08-12T06:10:51.438Z,95091.66
2022-08-12T06:13:28.355Z,95102.31
2022-08-12T06:16:07.386Z,95098.25
2022-08-12T06:18:34.408Z,95101.41
2022-08-12T06:21:01.894Z,95095.34
2022-08-12T06:23:29.944Z,95102.84
2022-08-12T06:25:57.702Z,95107.97
2022-08-12T06:28:25.291Z,95102.25
2022-08-12T06:31:15.254Z,95098.44
2022-08-12T06:33:59.593Z,95101.56
2022-08-12T06:36:29.502Z,95102.84
2022-08-12T06:38:59.556Z,95105.13
2022-08-12T06:42:10.692Z,95101.16
2022-08-12T06:44:32.273Z,95110.25
2022-08-12T06:46:59.082Z,95110.47
2022-08-12T06:49:26.020Z,95106.00
2022-08-12T06:51:56.828Z,95097.34
2022-08-12T06:54:30.872Z,95109.22
2022-08-12T06:57:04.356Z,95101.19
2022-08-12T06:59:32.584Z,95097.81
2022-08-12T07:01:59.616Z,95109.00
2022-08-12T07:04:36.215Z,95099.75
2022-08-12T07:07:05.491Z,95095.97
2022-08-12T07:10:01.421Z,95099.31
2022-08-12T07:12:20.062Z,95101.94
2022-08-12T07:14:50.559Z,95090.72
2022-08-12T07:17:17.679Z,95087.56
2022-08-12T07:19:46.790Z,95100.88
2022-08-12T07:22:16.134Z,95102.72
2022-08-12T07:24:43.080Z,95103.84
2022-08-12T07:27:09.956Z,95097.06
2022-08-12T07:30:03.480Z,95106.19
2022-08-12T07:32:25.635Z,95104.25
2022-08-12T07:34:56.901Z,95110.06
2022-08-12T07:37:23.796Z,95111.91
2022-08-12T07:39:59.350Z,95099.88
2022-08-12T07:42:28.837Z,95093.09
2022-08-12T07:44:56.839Z,95108.50
2022-08-12T07:47:27.052Z,95084.09
2022-08-12T07:50:05.873Z,95092.09
2022-08-12T07:52:38.693Z,95092.28
2022-08-12T07:55:06.963Z,95092.63
2022-08-12T07:57:35.301Z,95094.03
2022-08-12T08:00:05.951Z,95090.44
2022-08-12T08:02:37.650Z,95090.09
2022-08-12T08:05:05.252Z,95086.63
2022-08-12T08:07:32.193Z,95097.44
2022-08-12T08:10:00.549Z,95095.09
2022-08-12T08:12:47.510Z,95092.38
2022-08-12T08:15:15.978Z,95088.13
2022-08-12T08:18:03.462Z,95096.69
2022-08-12T08:20:37.956Z,95087.78
2022-08-12T08:23:08.126Z,95079.41
2022-08-12T08:25:38.748Z,95084.38
2022-08-12T08:28:18.903Z,95082.38
2022-08-12T08:30:50.560Z,95077.09
2022-08-12T08:34:01.251Z,95073.13
2022-08-12T08:36:07.687Z,95070.09
2022-08-12T08:38:57.517Z,95076.31
2022-08-12T08:42:15.752Z,95068.00
2022-08-12T08:44:39.476Z,95064.75
2022-08-12T08:47:07.845Z,95058.09
2022-08-12T08:49:37.203Z,95060.25
2022-08-12T08:52:10.866Z,95057.38
2022-08-12T08:54:38.250Z,95048.94
2022-08-12T08:57:08.292Z,95062.09
2022-08-12T08:59:35.471Z,95051.16
2022-08-12T09:02:02.675Z,95060.75
2022-08-12T09:05:12.752Z,95056.13
2022-08-12T09:07:51.287Z,95054.53
2022-08-12T09:10:15.575Z,95056.25
2022-08-12T09:13:23.468Z,95053.44
2022-08-12T09:15:57.661Z,95061.34
2022-08-12T09:18:33.146Z,95057.47
2022-08-12T09:23:58.559Z,95062.41
2022-08-12T09:26:33.751Z,95066.66
2022-08-12T09:29:12.232Z,95055.25
2022-08-12T09:32:07.973Z,95040.19
2022-08-12T09:34:34.196Z,95034.91
2022-08-12T09:37:19.282Z,95050.97
2022-08-12T09:40:01.892Z,95046.97
2022-08-12T09:43:15.244Z,95046.78
2022-08-12T09:46:11.390Z,95045.22
2022-08-12T09:48:36.731Z,95036.81
2022-08-12T09:51:10.841Z,95041.78
2022-08-12T09:53:45.725Z,95038.38
2022-08-12T09:56:58.096Z,95033.66
2022-08-12T10:00:13.133Z,95041.19
2022-08-12T10:02:44.048Z,95034.75
2022-08-12T10:04:59.607Z,95021.88
2022-08-12T10:07:29.153Z,95025.31
2022-08-12T10:10:08.125Z,95031.41
2022-08-12T10:13:35.260Z,95029.31
2022-08-12T10:16:07.649Z,95029.31
2022-08-12T10:18:52.265Z,95026.22
2022-08-12T10:21:37.557Z,95009.94
2022-08-12T10:24:05.999Z,95009.19
2022-08-12T10:26:52.890Z,95009.50
2022-08-12T10:30:03.910Z,95001.50
2022-08-12T10:32:44.038Z,95000.84
2022-08-12T10:35:14.237Z,94997.72
2022-08-12T10:38:32.279Z,94998.22
2022-08-12T10:40:33.009Z,94992.72
2022-08-12T10:43:20.620Z,94991.75
2022-08-12T10:45:51.897Z,94984.63
2022-08-12T10:48:34.318Z,94995.34
2022-08-12T10:52:02.567Z,94984.31
2022-08-12T10:53:52.530Z,94989.13
2022-08-12T10:56:19.595Z,94984.50
2022-08-12T10:58:49.279Z,94985.66
2022-08-12T11:01:50.117Z,94982.88
2022-08-12T11:04:31.875Z,94980.94
2022-08-12T11:07:09.189Z,94962.56
2022-08-12T11:10:01.272Z,94983.69
2022-08-12T11:12:56.115Z,94970.47
2022-08-12T11:15:20.917Z,94976.03
2022-08-12T11:17:53.512Z,94982.03
2022-08-12T11:20:30.597Z,94981.66
2022-08-12T11:23:03.994Z,94968.19
2022-08-12T11:25:55.971Z,94939.06
2022-08-12T11:28:34.213Z,94968.94
2022-08-12T11:31:05.559Z,94967.47
2022-08-12T11:34:05.190Z,94962.19
2022-08-12T11:36:21.959Z,94958.81
2022-08-12T11:38:50.692Z,94957.41
2022-08-12T11:41:28.031Z,94967.72
2022-08-12T11:44:35.558Z,94964.44
2022-08-12T11:46:53.084Z,94949.59
2022-08-12T11:49:31.553Z,94949.38
2022-08-12T11:52:02.307Z,94960.66
2022-08-12T11:54:30.381Z,94964.56
2022-08-12T11:57:00.487Z,94962.94
2022-08-12T12:02:20.665Z,94963.97
2022-08-12T12:04:52.674Z,94955.56
2022-08-12T12:07:22.649Z,94935.38
2022-08-12T12:10:03.763Z,94941.16
2022-08-12T12:12:31.239Z,94946.19
2022-08-12T12:15:02.812Z,94947.81
2022-08-12T12:17:38.448Z,94939.06
2022-08-12T12:20:11.411Z,94939.44
2022-08-12T12:22:41.675Z,94923.84
2022-08-12T12:25:13.215Z,94936.97
2022-08-12T12:28:04.757Z,94933.66
2022-08-12T12:30:33.290Z,94928.97
2022-08-12T12:33:00.088Z,94928.50
2022-08-12T12:36:18.754Z,94935.16
2022-08-12T12:38:15.468Z,94928.22
2022-08-12T12:40:44.482Z,94932.22
2022-08-12T12:43:13.980Z,94934.19
2022-08-12T12:45:45.843Z,94931.75
2022-08-12T12:48:18.236Z,94918.44
2022-08-12T12:50:51.639Z,94912.88
2022-08-12T12:54:07.811Z,94923.41
2022-08-12T12:56:15.724Z,94913.78
2022-08-12T12:58:43.826Z,94913.78
2022-08-12T13:01:25.338Z,94917.13
2022-08-12T13:04:02.674Z,94907.69
2022-08-12T13:06:31.718Z,94895.78
2022-08-12T13:09:02.515Z,94907.88
2022-08-12T13:11:39.244Z,94908.75
2022-08-12T13:14:12.965Z,94911.00
2022-08-12T13:16:56.603Z,94914.53
2022-08-12T13:19:25.109Z,94906.84
2022-08-12T13:22:19.038Z,94909.63
2022-08-12T13:24:56.564Z,94909.19
2022-08-12T13:27:35.005Z,94907.84
2022-08-12T13:30:10.928Z,94916.06
2022-08-12T13:32:57.129Z,94912.81
2022-08-12T13:36:03.052Z,94912.41
2022-08-12T13:38:34.046Z,94903.81
2022-08-12T13:41:03.150Z,94911.63
2022-08-12T13:43:40.232Z,94910.53
2022-08-12T13:46:12.229Z,94897.84
2022-08-12T13:48:44.963Z,94915.00
2022-08-12T13:51:13.079Z,94910.38
2022-08-12T13:53:55.248Z,94903.31
2022-08-12T13:56:34.459Z,94917.84
2022-08-12T13:59:07.996Z,94908.38
2022-08-12T14:01:40.768Z,94906.56
2022-08-12T14:04:11.576Z,94899.41
2022-08-12T14:06:43.464Z,94903.34
2022-08-12T14:09:17.830Z,94904.06
2022-08-12T14:11:51.181Z,94904.69
2022-08-12T14:14:31.071Z,94908.88
2022-08-12T14:17:02.403Z,94902.91
2022-08-12T14:19:37.675Z,94914.50
2022-08-12T14:22:05.730Z,94909.63
2022-08-12T14:24:40.093Z,94907.19
2022-08-12T14:27:12.123Z,94906.97
2022-08-12T14:30:04.380Z,94899.28
2022-08-12T14:32:37.154Z,94909.41
2022-08-12T14:35:09.055Z,94905.13
2022-08-12T14:37:57.436Z,94899.16
2022-08-12T14:40:29.995Z,94899.72
2022-08-12T14:42:58.412Z,94909.44
2022-08-12T14:45:45.114Z,94896.97
2022-08-12T14:48:15.189Z,94901.38
2022-08-12T14:51:02.667Z,94903.53
2022-08-12T14:57:10.111Z,94898.84
2022-08-12T14:59:26.419Z,94899.09
2022-08-12T15:01:54.518Z,94893.47
2022-08-12T15:04:26.239Z,94899.22
2022-08-12T15:06:53.313Z,94898.91
2022-08-12T15:09:28.796Z,94892.72
2022-08-12T15:12:03.584Z,94895.66
2022-08-12T15:14:35.339Z,94902.28
2022-08-12T15:17:07.162Z,94895.00
2022-08-12T15:20:27.845Z,94887.34
2022-08-12T15:22:38.180Z,94878.00
2022-08-12T15:25:07.503Z,94884.88
2022-08-12T15:28:04.031Z,94858.44
2022-08-12T15:30:33.842Z,94878.81
2022-08-12T15:33:03.193Z,94885.16
2022-08-12T15:35:50.184Z,94872.88
2022-08-12T15:38:21.187Z,94879.69
2022-08-12T15:40:51.344Z,94883.75
2022-08-12T15:43:35.457Z,94877.84
2022-08-12T15:46:06.539Z,94885.00
2022-08-12T15:48:37.308Z,94874.63
2022-08-12T15:51:04.638Z,94878.03
2022-08-12T15:53:54.673Z,94869.66
2022-08-12T15:56:29.474Z,94870.31
2022-08-12T15:58:59.158Z,94877.31
2022-08-12T16:01:35.365Z,94875.13
2022-08-12T16:04:05.113Z,94873.47
2022-08-12T16:09:56.561Z,94871.72
2022-08-12T16:12:12.636Z,94860.66
2022-08-12T16:14:41.834Z,94874.91
2022-08-12T16:17:14.943Z,94869.06
2022-08-12T16:20:03.541Z,94869.03
2022-08-12T16:22:29.384Z,94874.03
2022-08-12T16:24:57.412Z,94867.88
2022-08-12T16:27:26.101Z,94860.06
2022-08-12T16:29:57.418Z,94843.59
2022-08-12T16:32:31.223Z,94862.00
2022-08-12T16:34:59.807Z,94858.34
2022-08-12T16:37:33.088Z,94853.03
2022-08-12T16:40:15.190Z,94852.34
2022-08-12T16:42:54.380Z,94860.28
2022-08-12T16:46:05.114Z,94858.78
2022-08-12T16:48:34.614Z,94864.09
2022-08-12T16:51:08.202Z,94854.63
2022-08-12T16:53:43.404Z,94846.81
2022-08-12T16:56:12.582Z,94864.19
2022-08-12T16:58:40.215Z,94868.06
2022-08-12T17:01:11.974Z,94855.69
2022-08-12T17:03:59.809Z,94854.50
2022-08-12T17:06:28.058Z,94854.84
2022-08-12T17:09:03.699Z,94853.44
2022-08-12T17:11:38.854Z,94849.16
2022-08-12T17:14:12.590Z,94845.56
2022-08-12T17:16:41.482Z,94839.44
2022-08-12T17:19:09.802Z,94844.25
2022-08-12T17:21:41.400Z,94838.41
2022-08-12T17:24:30.069Z,94847.78
2022-08-12T17:26:59.859Z,94841.72
2022-08-12T17:30:01.399Z,94840.38
2022-08-12T17:32:14.670Z,94830.91
2022-08-12T17:35:00.664Z,94842.59
2022-08-12T17:37:28.287Z,94837.97
2022-08-12T17:40:12.383Z,94847.38
2022-08-12T17:42:47.526Z,94848.53
2022-08-12T17:45:19.749Z,94845.00
2022-08-12T17:48:02.121Z,94849.38
2022-08-12T17:50:34.414Z,94847.22
2022-08-12T17:53:02.747Z,94839.22
2022-08-12T17:55:44.415Z,94850.94
2022-08-12T17:58:37.013Z,94848.41
2022-08-12T18:01:06.149Z,94857.09
2022-08-12T18:03:58.095Z,94852.81
2022-08-12T18:06:27.920Z,94844.25
2022-08-12T18:08:58.792Z,94841.88
2022-08-12T18:12:05.926Z,94857.47
2022-08-12T18:14:37.280Z,94849.41
2022-08-12T18:17:08.736Z,94862.38
2022-08-12T18:20:07.041Z,94860.44
2022-08-12T18:22:30.789Z,94868.78
2022-08-12T18:26:12.729Z,94862.59
2022-08-12T18:28:16.917Z,94853.84
2022-08-12T18:30:52.776Z,94866.78
2022-08-12T18:33:25.530Z,94867.09
2022-08-12T18:35:55.743Z,94860.78
2022-08-12T18:38:25.551Z,94857.06
2022-08-12T18:41:21.743Z,94863.66
2022-08-12T18:44:08.022Z,94875.06
2022-08-12T18:46:54.069Z,94869.28
2022-08-12T18:49:38.888Z,94860.56
2022-08-12T18:52:08.696Z,94869.63
2022-08-12T18:54:54.089Z,94871.69
2022-08-12T18:57:46.062Z,94878.84
2022-08-12T19:00:20.955Z,94869.59
2022-08-12T19:02:50.972Z,94874.66
2022-08-12T19:05:19.028Z,94860.13
2022-08-12T19:08:00.745Z,94880.72
2022-08-12T19:10:31.238Z,94866.06
2022-08-12T19:13:39.498Z,94879.69
2022-08-12T19:16:10.908Z,94874.81
2022-08-12T19:18:46.152Z,94874.59
2022-08-12T19:21:16.596Z,94878.81
2022-08-12T19:24:04.489Z,94880.47
2022-08-12T19:26:34.976Z,94876.50
2022-08-12T19:29:05.752Z,94891.19
2022-08-12T19:31:56.328Z,94887.22
2022-08-12T19:37:22.635Z,94884.56
2022-08-12T19:40:07.920Z,94876.63
2022-08-12T19:42:42.800Z,94880.63
2022-08-12T19:45:16.478Z,94876.28
2022-08-12T19:47:45.000Z,94868.66
2022-08-12T19:50:14.165Z,94869.22
2022-08-12T19:52:48.046Z,94869.38
2022-08-12T19:55:21.350Z,94844.81
2022-08-12T19:58:03.357Z,94866.22
2022-08-12T20:00:35.023Z,94851.09
2022-08-12T20:03:04.516Z,94845.81
2022-08-12T20:06:05.804Z,94858.72
2022-08-12T20:08:29.375Z,94839.09
2022-08-12T20:12:09.402Z,94874.78
2022-08-12T20:14:00.720Z,94858.66
2022-08-12T20:16:57.765Z,94859.31
2022-08-12T20:19:52.894Z,94847.81
2022-08-12T20:22:24.048Z,94846.88
2022-08-12T20:24:57.438Z,94843.22
2022-08-12T20:27:29.268Z,94836.59
2022-08-12T20:30:13.712Z,94842.41
2022-08-12T20:32:57.813Z,94848.63
2022-08-12T20:36:06.900Z,94847.56
2022-08-12T20:38:26.975Z,94847.50
2022-08-12T20:40:55.798Z,94843.22
2022-08-12T20:43:23.954Z,94841.09
2022-08-12T20:45:57.327Z,94821.00
2022-08-12T20:48:28.826Z,94822.53
2022-08-12T20:51:04.411Z,94821.19
2022-08-12T20:53:54.264Z,94836.66
2022-08-12T20:56:36.505Z,94834.09
2022-08-12T20:59:07.394Z,94839.97
2022-08-12T21:01:46.651Z,94842.09
2022-08-12T21:04:35.946Z,94834.25
2022-08-12T21:07:09.187Z,94842.22
2022-08-12T21:09:40.900Z,94836.97
2022-08-12T21:12:31.611Z,94823.38
2022-08-12T21:15:00.776Z,94836.53
2022-08-12T21:18:08.056Z,94824.97
2022-08-12T21:20:32.680Z,94838.06
2022-08-12T21:22:59.506Z,94834.38
2022-08-12T21:25:44.117Z,94838.06
2022-08-12T21:28:12.828Z,94835.97
2022-08-12T21:30:43.499Z,94838.66
2022-08-12T21:33:58.515Z,94830.31
2022-08-12T21:36:22.654Z,94842.41
2022-08-12T21:38:51.129Z,94837.94
2022-08-12T21:41:20.320Z,94834.50
2022-08-12T21:43:50.504Z,94835.00
2022-08-12T21:46:34.912Z,94828.72
2022-08-12T21:49:05.306Z,94823.50
2022-08-12T21:51:49.767Z,94833.56
2022-08-12T21:54:22.648Z,94841.00
2022-08-12T21:56:55.853Z,94841.06
2022-08-12T21:59:22.737Z,94845.75
2022-08-12T22:01:49.923Z,94841.00
2022-08-12T22:04:36.423Z,94830.56
2022-08-12T22:07:04.552Z,94826.66
2022-08-12T22:09:43.355Z,94828.56
2022-08-12T22:12:29.492Z,94823.84
2022-08-12T22:14:56.468Z,94824.69
2022-08-12T22:17:49.664Z,94821.84
2022-08-12T22:20:18.106Z,94822.41
2022-08-12T22:22:53.901Z,94816.13
2022-08-12T22:25:27.826Z,94814.53
2022-08-12T22:28:13.267Z,94805.56
2022-08-12T22:30:59.580Z,94806.56
2022-08-12T22:33:26.350Z,94797.03
2022-08-12T22:35:59.348Z,94798.03
2022-08-12T22:38:29.370Z,94789.28
2022-08-12T22:41:01.354Z,94795.78
2022-08-12T22:44:01.182Z,94793.06
2022-08-12T22:46:52.696Z,94792.53
2022-08-12T22:49:36.527Z,94785.09
2022-08-12T22:52:12.108Z,94793.25
2022-08-12T22:54:58.026Z,94784.00
2022-08-12T22:57:53.872Z,94767.13
2022-08-12T23:00:27.420Z,94782.88
2022-08-12T23:03:00.460Z,94779.25
2022-08-12T23:05:36.976Z,94783.88
2022-08-12T23:08:29.888Z,94789.91
2022-08-12T23:11:05.872Z,94783.88
2022-08-12T23:13:55.278Z,94781.16
2022-08-12T23:16:31.109Z,94778.66
2022-08-12T23:19:10.851Z,94781.53
2022-08-12T23:22:06.456Z,94777.94
2022-08-12T23:24:54.024Z,94779.88
2022-08-12T23:27:50.616Z,94775.75
2022-08-12T23:30:31.664Z,94781.09
2022-08-12T23:33:19.897Z,94778.59
2022-08-12T23:35:59.313Z,94778.59
2022-08-12T23:38:32.442Z,94772.25
2022-08-12T23:41:02.122Z,94777.25
2022-08-12T23:43:39.095Z,94773.31
2022-08-12T23:46:10.256Z,94764.91
2022-08-12T23:48:38.184Z,94771.75
2022-08-12T23:51:23.333Z,94767.69
2022-08-12T23:54:03.017Z,94758.47
2022-08-12T23:56:33.808Z,94755.81
2022-08-12T23:59:02.989Z,94755.91
